createdAt,value
2018-01-19T00:01:06.582Z,17.68
2018-01-19T00:04:08.507Z,17.67
2018-01-19T00:07:10.470Z,17.27
2018-01-19T00:10:12.392Z,17.65
2018-01-19T00:13:14.387Z,17.64
2018-01-19T00:16:16.289Z,17.63
2018-01-19T00:19:18.306Z,17.62
2018-01-19T00:22:20.275Z,17.61
2018-01-19T00:25:22.191Z,17.60
2018-01-19T00:28:24.155Z,17.58
2018-01-19T00:31:26.095Z,17.57
2018-01-19T00:34:28.069Z,17.57
2018-01-19T00:37:29.974Z,17.57
2018-01-19T00:40:31.953Z,17.55
2018-01-19T00:43:33.863Z,17.53
2018-01-19T00:46:35.830Z,17.52
2018-01-19T00:49:37.976Z,17.53
2018-01-19T00:52:39.943Z,17.50
2018-01-19T00:55:41.860Z,17.49
2018-01-19T00:58:43.827Z,17.48
2018-01-19T01:01:45.962Z,17.48
2018-01-19T01:04:47.935Z,17.47
2018-01-19T01:07:49.842Z,17.46
2018-01-19T01:10:51.823Z,17.45
2018-01-19T01:13:53.764Z,17.45
2018-01-19T01:16:55.723Z,17.45
2018-01-19T01:19:57.643Z,17.44
2018-01-19T01:22:59.619Z,17.41
2018-01-19T01:26:01.638Z,17.42
2018-01-19T01:29:03.614Z,17.42
2018-01-19T01:32:05.526Z,17.40
2018-01-19T01:35:07.442Z,17.39
2018-01-19T01:38:09.415Z,17.37
2018-01-19T01:41:11.340Z,17.36
2018-01-19T01:44:13.299Z,17.35
2018-01-19T01:47:15.266Z,17.36
2018-01-19T01:50:18.234Z,17.35
2018-01-19T01:53:20.138Z,17.33
2018-01-19T01:56:22.119Z,17.32
2018-01-19T01:59:24.056Z,17.33
2018-01-19T02:02:26.018Z,17.30
2018-01-19T02:05:27.948Z,17.31
2018-01-19T02:08:29.907Z,17.30
2018-01-19T02:11:31.826Z,17.29
2018-01-19T02:14:33.800Z,17.30
2018-01-19T02:17:35.735Z,17.28
2018-01-19T02:20:37.694Z,17.27
2018-01-19T02:23:39.610Z,17.27
2018-01-19T02:26:41.599Z,17.27
2018-01-19T02:29:43.506Z,17.24
2018-01-19T02:32:45.505Z,17.23
2018-01-19T02:35:47.498Z,17.23
2018-01-19T02:38:49.514Z,17.24
2018-01-19T02:41:51.474Z,17.22
2018-01-19T02:44:53.391Z,17.22
2018-01-19T02:47:55.375Z,17.20
2018-01-19T02:50:57.296Z,17.20
2018-01-19T02:53:59.352Z,17.18
2018-01-19T02:57:01.275Z,17.19
2018-01-19T03:00:03.288Z,17.17
2018-01-19T03:03:06.311Z,17.16
2018-01-19T03:06:08.271Z,17.15
2018-01-19T03:09:10.195Z,17.14
2018-01-19T03:12:12.176Z,17.14
2018-01-19T03:15:14.128Z,17.15
2018-01-19T03:18:16.055Z,17.14
2018-01-19T03:21:17.987Z,17.13
2018-01-19T03:24:19.875Z,17.12
2018-01-19T03:27:21.803Z,17.12
2018-01-19T03:30:23.772Z,17.11
2018-01-19T03:33:25.786Z,17.11
2018-01-19T03:36:27.767Z,17.09
2018-01-19T03:39:29.693Z,17.08
2018-01-19T03:42:31.651Z,17.08
2018-01-19T03:45:33.591Z,17.07
2018-01-19T03:48:35.566Z,17.07
2018-01-19T03:51:37.543Z,17.06
2018-01-19T03:54:39.455Z,17.06
2018-01-19T03:57:41.443Z,17.05
2018-01-19T04:00:43.450Z,17.04
2018-01-19T04:03:45.458Z,17.04
2018-01-19T04:06:47.683Z,17.03
2018-01-19T04:09:49.687Z,17.02
2018-01-19T04:12:51.666Z,17.02
2018-01-19T04:15:53.666Z,17.01
2018-01-19T04:18:55.646Z,17.02
2018-01-19T04:21:57.563Z,17.01
2018-01-19T04:24:59.547Z,16.99
2018-01-19T04:28:01.455Z,17.00
2018-01-19T04:31:03.354Z,17.00
2018-01-19T04:34:05.275Z,16.97
2018-01-19T04:37:07.167Z,16.96
2018-01-19T04:40:09.054Z,16.96
2018-01-19T04:43:10.939Z,16.95
2018-01-19T04:46:12.845Z,16.95
2018-01-19T04:49:14.728Z,16.96
2018-01-19T04:52:16.640Z,16.95
2018-01-19T04:55:18.547Z,16.92
2018-01-19T04:58:20.419Z,16.93
2018-01-19T05:01:22.336Z,16.93
2018-01-19T05:04:24.225Z,16.95
2018-01-19T05:07:26.435Z,16.95
2018-01-19T05:10:28.315Z,16.97
2018-01-19T05:13:30.226Z,16.99
2018-01-19T05:16:32.110Z,17.03
2018-01-19T05:19:34.003Z,17.05
2018-01-19T05:22:35.888Z,17.10
2018-01-19T05:25:37.808Z,17.14
2018-01-19T05:28:39.779Z,17.19
2018-01-19T05:31:41.707Z,17.24
2018-01-19T05:34:43.663Z,17.32
2018-01-19T05:37:45.586Z,17.37
2018-01-19T05:40:47.719Z,17.41
2018-01-19T05:43:49.678Z,17.49
2018-01-19T05:46:51.731Z,17.53
2018-01-19T05:49:53.714Z,17.57
2018-01-19T05:52:55.695Z,17.61
2018-01-19T05:55:57.806Z,17.66
2018-01-19T05:58:59.787Z,17.69
2018-01-19T06:02:01.703Z,17.72
2018-01-19T06:05:03.627Z,17.76
2018-01-19T06:08:05.559Z,17.80
2018-01-19T06:11:07.484Z,17.83
2018-01-19T06:14:09.450Z,17.87
2018-01-19T06:17:11.487Z,17.91
2018-01-19T06:20:14.483Z,17.93
2018-01-19T06:23:16.407Z,17.96
2018-01-19T06:26:18.382Z,17.97
2018-01-19T06:29:20.298Z,17.99
2018-01-19T06:32:22.168Z,18.02
2018-01-19T06:35:24.202Z,18.04
2018-01-19T06:38:26.078Z,18.06
2018-01-19T06:41:28.031Z,18.07
2018-01-19T06:44:29.908Z,18.09
2018-01-19T06:47:31.827Z,18.11
2018-01-19T06:50:33.768Z,18.13
2018-01-19T06:53:35.619Z,18.14
2018-01-19T06:56:37.507Z,18.16
2018-01-19T06:59:39.398Z,18.16
2018-01-19T07:02:41.290Z,18.18
2018-01-19T07:05:43.342Z,18.20
2018-01-19T07:08:45.190Z,18.21
2018-01-19T07:11:47.354Z,18.23
2018-01-19T07:14:49.239Z,18.25
2018-01-19T07:17:51.360Z,18.25
2018-01-19T07:20:53.242Z,18.24
2018-01-19T07:23:55.255Z,18.24
2018-01-19T07:26:57.177Z,18.23
2018-01-19T07:29:59.042Z,18.22
2018-01-19T07:33:00.959Z,18.21
2018-01-19T07:36:02.963Z,18.20
2018-01-19T07:39:04.849Z,18.19
2018-01-19T07:42:06.787Z,18.19
2018-01-19T07:45:08.703Z,18.19
2018-01-19T07:48:10.663Z,18.19
2018-01-19T07:51:12.555Z,18.19
2018-01-19T07:54:14.738Z,18.25
2018-01-19T07:57:16.672Z,18.18
2018-01-19T08:00:18.559Z,18.17
2018-01-19T08:03:20.484Z,18.18
2018-01-19T08:06:22.355Z,18.21
2018-01-19T08:09:24.292Z,18.28
2018-01-19T08:12:26.203Z,18.31
2018-01-19T08:15:28.099Z,18.32
2018-01-19T08:18:29.981Z,18.31
2018-01-19T08:21:31.899Z,18.32
2018-01-19T08:24:33.770Z,18.33
2018-01-19T08:27:35.679Z,18.34
2018-01-19T08:30:37.595Z,18.36
2018-01-19T08:33:39.519Z,18.37
2018-01-19T08:36:41.396Z,18.38
2018-01-19T08:39:43.334Z,18.39
2018-01-19T08:42:45.202Z,18.38
2018-01-19T08:45:47.271Z,18.40
2018-01-19T08:48:49.159Z,18.41
2018-01-19T08:51:51.075Z,18.41
2018-01-19T08:54:52.960Z,18.41
2018-01-19T08:57:55.059Z,18.42
2018-01-19T09:00:56.947Z,18.42
2018-01-19T09:03:58.887Z,18.42
2018-01-19T09:07:00.824Z,18.43
2018-01-19T09:10:02.767Z,18.42
2018-01-19T09:13:04.640Z,18.43
2018-01-19T09:16:06.551Z,18.43
2018-01-19T09:19:08.435Z,18.43
2018-01-19T09:22:10.634Z,18.43
2018-01-19T09:25:12.735Z,18.42
2018-01-19T09:28:14.671Z,18.43
2018-01-19T09:31:17.820Z,18.43
2018-01-19T09:34:19.699Z,18.42
2018-01-19T09:37:21.960Z,18.43
2018-01-19T09:40:23.840Z,18.42
2018-01-19T09:43:25.780Z,18.42
2018-01-19T09:46:27.767Z,18.43
2018-01-19T09:49:29.668Z,18.44
2018-01-19T09:52:31.957Z,18.44
2018-01-19T09:55:33.825Z,18.45
2018-01-19T09:58:35.843Z,18.45
2018-01-19T10:01:37.718Z,18.45
2018-01-19T10:04:39.915Z,18.47
2018-01-19T10:07:41.867Z,18.48
2018-01-19T10:10:43.763Z,18.48
2018-01-19T10:13:45.839Z,18.48
2018-01-19T10:16:48.738Z,18.49
2018-01-19T10:19:50.658Z,18.49
2018-01-19T10:22:52.583Z,18.49
2018-01-19T10:25:54.467Z,18.49
2018-01-19T10:28:56.451Z,18.50
2018-01-19T10:31:58.419Z,18.49
2018-01-19T10:35:00.476Z,18.48
2018-01-19T10:38:02.430Z,18.48
2018-01-19T10:41:04.310Z,18.49
2018-01-19T10:44:06.274Z,18.49
2018-01-19T10:47:08.201Z,18.50
2018-01-19T10:50:10.111Z,18.50
2018-01-19T10:53:12.004Z,18.51
2018-01-19T10:56:14.981Z,18.52
2018-01-19T10:59:17.031Z,18.51
2018-01-19T11:02:19.359Z,18.53
2018-01-19T11:05:21.468Z,18.52
2018-01-19T11:08:23.338Z,18.50
2018-01-19T11:11:25.250Z,18.53
2018-01-19T11:14:27.122Z,18.53
2018-01-19T11:17:29.073Z,18.54
2018-01-19T11:20:30.943Z,18.54
2018-01-19T11:23:32.875Z,18.53
2018-01-19T11:26:34.761Z,18.54
2018-01-19T11:29:36.670Z,18.53
2018-01-19T11:32:38.599Z,18.52
2018-01-19T11:35:40.494Z,18.52
2018-01-19T11:38:42.394Z,18.51
2018-01-19T11:41:44.275Z,18.51
2018-01-19T11:44:46.216Z,18.51
2018-01-19T11:47:48.071Z,18.52
2018-01-19T11:50:49.990Z,18.51
2018-01-19T11:53:51.919Z,18.52
2018-01-19T11:56:53.803Z,18.53
2018-01-19T11:59:56.007Z,18.54
2018-01-19T12:02:57.882Z,18.55
2018-01-19T12:05:59.804Z,18.55
2018-01-19T12:09:01.683Z,18.55
2018-01-19T12:12:03.816Z,18.55
2018-01-19T12:15:05.703Z,18.54
2018-01-19T12:18:07.619Z,18.54
2018-01-19T12:21:09.535Z,18.54
2018-01-19T12:24:11.605Z,18.54
2018-01-19T12:27:13.482Z,18.54
2018-01-19T12:30:15.436Z,18.53
2018-01-19T12:33:17.323Z,18.52
2018-01-19T12:36:19.269Z,18.51
2018-01-19T12:39:21.171Z,18.51
2018-01-19T12:42:23.087Z,18.51
2018-01-19T12:45:24.972Z,18.50
2018-01-19T12:48:26.891Z,18.49
2018-01-19T12:51:28.766Z,18.48
2018-01-19T12:54:30.711Z,18.48
2018-01-19T12:57:32.595Z,18.47
2018-01-19T13:00:34.534Z,18.47
2018-01-19T13:03:36.435Z,18.46
2018-01-19T13:06:38.319Z,18.46
2018-01-19T13:09:40.286Z,18.46
2018-01-19T13:12:42.163Z,18.44
2018-01-19T13:15:44.087Z,18.44
2018-01-19T13:18:45.975Z,18.43
2018-01-19T13:21:48.801Z,18.43
2018-01-19T13:24:50.679Z,18.44
2018-01-19T13:27:52.599Z,18.43
2018-01-19T13:30:54.476Z,18.43
2018-01-19T13:33:56.663Z,18.43
2018-01-19T13:36:58.534Z,18.44
2018-01-19T13:40:00.450Z,18.44
2018-01-19T13:43:02.555Z,18.44
2018-01-19T13:46:04.439Z,18.44
2018-01-19T13:49:06.549Z,18.45
2018-01-19T13:52:08.416Z,18.45
2018-01-19T13:55:10.333Z,18.45
2018-01-19T13:58:12.247Z,18.46
2018-01-19T14:01:14.153Z,18.46
2018-01-19T14:04:16.047Z,18.30
2018-01-19T14:07:18.988Z,18.48
2018-01-19T14:10:20.882Z,18.47
2018-01-19T14:13:22.791Z,18.48
2018-01-19T14:16:24.719Z,18.48
2018-01-19T14:19:26.899Z,18.48
2018-01-19T14:22:28.789Z,18.48
2018-01-19T14:25:30.690Z,18.48
2018-01-19T14:28:32.573Z,18.48
2018-01-19T14:31:34.715Z,18.49
2018-01-19T14:34:36.642Z,18.49
2018-01-19T14:37:38.546Z,18.49
2018-01-19T14:40:40.439Z,18.49
2018-01-19T14:43:42.380Z,18.50
2018-01-19T14:46:44.279Z,18.49
2018-01-19T14:49:46.206Z,18.49
2018-01-19T14:52:48.100Z,18.50
2018-01-19T14:55:50.012Z,18.50
2018-01-19T14:58:51.923Z,18.51
2018-01-19T15:01:53.848Z,18.53
2018-01-19T15:04:55.714Z,18.54
2018-01-19T15:07:57.651Z,18.55
2018-01-19T15:10:59.523Z,18.57
2018-01-19T15:14:01.651Z,18.57
2018-01-19T15:17:03.531Z,18.59
2018-01-19T15:20:05.459Z,18.60
2018-01-19T15:23:07.358Z,18.62
2018-01-19T15:26:09.267Z,18.63
2018-01-19T15:29:11.131Z,18.64
2018-01-19T15:32:13.072Z,18.65
2018-01-19T15:35:14.945Z,18.65
2018-01-19T15:38:16.875Z,18.65
2018-01-19T15:41:18.743Z,18.67
2018-01-19T15:44:20.644Z,18.67
2018-01-19T15:47:22.527Z,18.67
2018-01-19T15:50:24.690Z,18.67
2018-01-19T15:53:26.567Z,18.67
2018-01-19T15:56:28.479Z,18.67
2018-01-19T15:59:30.357Z,18.68
2018-01-19T16:02:32.436Z,18.67
2018-01-19T16:05:34.559Z,18.68
2018-01-19T16:08:36.476Z,18.68
2018-01-19T16:11:38.360Z,18.69
2018-01-19T16:14:40.275Z,18.68
2018-01-19T16:17:42.151Z,18.68
2018-01-19T16:20:44.068Z,18.68
2018-01-19T16:23:45.999Z,18.68
2018-01-19T16:26:47.947Z,18.67
2018-01-19T16:29:50.871Z,18.67
2018-01-19T16:32:53.030Z,18.67
2018-01-19T16:35:54.911Z,18.67
2018-01-19T16:38:56.814Z,18.67
2018-01-19T16:41:58.851Z,18.66
2018-01-19T16:45:00.767Z,18.66
2018-01-19T16:48:02.685Z,18.66
2018-01-19T16:51:04.635Z,18.66
2018-01-19T16:54:06.702Z,18.67
2018-01-19T16:57:08.587Z,18.66
2018-01-19T17:00:10.518Z,18.66
2018-01-19T17:03:12.403Z,18.66
2018-01-19T17:06:14.326Z,18.67
2018-01-19T17:09:16.208Z,18.67
2018-01-19T17:12:18.142Z,18.67
2018-01-19T17:15:20.111Z,18.69
2018-01-19T17:18:22.056Z,18.66
2018-01-19T17:21:24.022Z,18.67
2018-01-19T17:24:25.989Z,18.68
2018-01-19T17:27:27.942Z,18.69
2018-01-19T17:30:29.888Z,18.70
2018-01-19T17:33:31.900Z,18.70
2018-01-19T17:36:34.238Z,18.70
2018-01-19T17:39:36.175Z,18.69
2018-01-19T17:42:38.331Z,18.70
2018-01-19T17:45:40.325Z,18.69
2018-01-19T17:48:42.463Z,18.67
2018-01-19T17:51:44.435Z,18.66
2018-01-19T17:54:46.426Z,18.64
2018-01-19T17:57:48.411Z,18.63
2018-01-19T18:00:50.307Z,18.64
2018-01-19T18:03:52.187Z,18.62
2018-01-19T18:06:54.099Z,18.61
2018-01-19T18:09:56.031Z,18.61
2018-01-19T18:12:57.924Z,18.61
2018-01-19T18:15:59.786Z,18.60
2018-01-19T18:19:01.707Z,18.61
2018-01-19T18:22:03.589Z,18.60
2018-01-19T18:25:05.511Z,18.60
2018-01-19T18:28:07.383Z,18.64
2018-01-19T18:31:09.295Z,18.62
2018-01-19T18:34:11.171Z,18.61
2018-01-19T18:37:13.403Z,18.65
2018-01-19T18:40:15.274Z,18.67
2018-01-19T18:43:17.186Z,18.70
2018-01-19T18:46:19.083Z,18.71
2018-01-19T18:49:21.887Z,18.72
2018-01-19T18:52:23.922Z,18.74
2018-01-19T18:55:25.794Z,18.75
2018-01-19T18:58:27.757Z,18.76
2018-01-19T19:01:29.655Z,18.78
2018-01-19T19:04:31.573Z,18.77
2018-01-19T19:07:33.480Z,18.74
2018-01-19T19:10:35.394Z,18.72
2018-01-19T19:13:37.286Z,18.72
2018-01-19T19:16:39.192Z,18.75
2018-01-19T19:19:41.123Z,18.73
2018-01-19T19:22:43.026Z,18.73
2018-01-19T19:25:44.915Z,18.71
2018-01-19T19:28:46.829Z,18.72
2018-01-19T19:31:48.747Z,18.72
2018-01-19T19:34:50.686Z,18.71
2018-01-19T19:37:52.579Z,18.72
2018-01-19T19:40:54.516Z,18.72
2018-01-19T19:43:56.386Z,18.73
2018-01-19T19:46:58.669Z,18.70
2018-01-19T19:50:00.540Z,18.71
2018-01-19T19:53:02.482Z,18.70
2018-01-19T19:56:04.355Z,18.69
2018-01-19T19:59:06.267Z,18.69
2018-01-19T20:02:08.172Z,18.69
2018-01-19T20:05:10.058Z,18.67
2018-01-19T20:08:11.943Z,18.66
2018-01-19T20:11:13.899Z,18.63
2018-01-19T20:14:15.759Z,18.64
2018-01-19T20:17:17.815Z,18.62
2018-01-19T20:20:19.715Z,18.61
2018-01-19T20:23:21.729Z,18.59
2018-01-19T20:26:23.905Z,18.59
2018-01-19T20:29:25.876Z,18.60
2018-01-19T20:32:27.842Z,18.56
2018-01-19T20:35:29.747Z,18.60
2018-01-19T20:38:31.632Z,18.57
2018-01-19T20:41:33.534Z,18.56
2018-01-19T20:44:35.403Z,18.53
2018-01-19T20:47:37.320Z,18.52
2018-01-19T20:50:39.192Z,18.49
2018-01-19T20:53:41.120Z,18.47
2018-01-19T20:56:43.012Z,18.47
2018-01-19T20:59:44.941Z,18.48
2018-01-19T21:02:46.839Z,18.48
2018-01-19T21:05:48.786Z,18.45
2018-01-19T21:08:50.812Z,18.45
2018-01-19T21:11:52.690Z,18.43
2018-01-19T21:14:54.609Z,18.43
2018-01-19T21:17:56.809Z,18.42
2018-01-19T21:20:59.058Z,18.40
2018-01-19T21:24:00.990Z,18.41
2018-01-19T21:27:02.871Z,18.39
2018-01-19T21:30:04.775Z,18.37
2018-01-19T21:33:06.662Z,18.37
2018-01-19T21:36:08.691Z,18.36
2018-01-19T21:39:10.591Z,18.35
2018-01-19T21:42:12.485Z,18.33
2018-01-19T21:45:14.364Z,18.31
2018-01-19T21:48:16.286Z,18.32
2018-01-19T21:51:18.159Z,18.31
2018-01-19T21:54:20.203Z,18.31
2018-01-19T21:57:22.066Z,18.29
2018-01-19T22:00:23.967Z,18.29
2018-01-19T22:03:25.855Z,18.27
2018-01-19T22:06:27.815Z,18.25
2018-01-19T22:09:30.561Z,18.25
2018-01-19T22:12:32.458Z,18.24
2018-01-19T22:15:34.472Z,18.21
2018-01-19T22:18:36.575Z,18.21
2018-01-19T22:21:38.618Z,18.20
2018-01-19T22:24:40.491Z,18.20
2018-01-19T22:27:42.419Z,18.19
2018-01-19T22:30:44.415Z,18.19
2018-01-19T22:33:46.330Z,18.14
2018-01-19T22:36:48.260Z,18.09
2018-01-19T22:39:50.254Z,18.09
2018-01-19T22:42:52.267Z,18.08
2018-01-19T22:45:54.261Z,18.04
2018-01-19T22:48:56.265Z,18.01
2018-01-19T22:51:58.231Z,17.97
2018-01-19T22:55:00.701Z,17.97
2018-01-19T22:58:02.648Z,17.93
2018-01-19T23:01:04.659Z,17.91
2018-01-19T23:04:06.638Z,17.88
2018-01-19T23:07:08.601Z,17.88
2018-01-19T23:10:10.534Z,17.85
2018-01-19T23:13:12.466Z,17.85
2018-01-19T23:16:14.467Z,17.83
2018-01-19T23:19:16.450Z,17.81
2018-01-19T23:22:18.772Z,17.81
2018-01-19T23:25:20.739Z,17.78
2018-01-19T23:28:22.646Z,17.78
2018-01-19T23:31:24.639Z,17.77
2018-01-19T23:34:26.543Z,17.75
2018-01-19T23:37:28.521Z,17.72
2018-01-19T23:40:30.458Z,17.72
2018-01-19T23:43:32.410Z,17.71
2018-01-19T23:46:34.335Z,17.50
2018-01-19T23:49:36.345Z,17.68
2018-01-19T23:52:38.306Z,17.66
2018-01-19T23:55:40.218Z,17.65
2018-01-19T23:58:42.202Z,17.64
